Hlavní strana
METAR-TAF:

METAR-TAF

Letiště :

Litchfield Municipal Airport

Litchfield, Illinois, Spojené státy americké

zeměpisná šířka: 39-09-44N, zeměpisná délka: 089-40-28W, výška: 210 m

Aktuální stav počasí

Zpráva byla vytvořena před 6 minutami, v 00:15 UTC
Jihovýchodní vítr 4 kt
Teplota 2°C
Vlhkost vzduchu 80%
Tlak 1025 hPa
Viditelnost: 16.1 km
Jasno

METAR: K3LF 080015Z AUTO 14004KT 10SM CLR 02/M01 A3026 RMK AO2 T00201014

Čas: 18:21 (00:21 UTC)


TAF: chybějící

Stav a předpovědi počasí z více než 4 000 letišť (zprávy METAR a TAF).

Červené a žluté tečky na mapě představují dostupné meteorologické stanice.

Když kurzor umístíte na tečku, zobrazí se název stanice.

Pak kliknutím zobrazíte stav a předpověď počasí.

Chcete-li změnit mapu, kliknutím na zelené tlačítko se znaménkem +mapu přiblížíte, kliknutím na zelené tlačítko se znaménkem – mapu oddálíte a kliknutím na zelené šipky přejdete na sousední mapy.


METAR-TAF: